Walton, Canada
Current Conditions -  °F | °C
As of 3:00 AM on Thursday 23 Oct 2014 (Local Time) from CYHZ Reporting Station
Overcast Overcast  
Wind Chill: 52°   Ceiling: 700
Heat Index: 52°   Visibility: 10mi
Dew Point: 50°   Wind: 15mph
Humidity: 94%   Direction: 80°E
Pressure: 30.13"   Gusts: 22mph
Location:  45.22°N, 64.02°W
Report Text: CYHZ 230600Z 08013G19KT 10SM BKN007 OVC025 11/10 A3013 RMK SF7SC1 SLP207
Loading
Personal Weather Stations






























Interactive Weather Map
Tropical Storm Tracking
New forecast layout! Learn more

10-Day Weather Forecast

Advertisements
Track Severe Weather on mobile